createdAt,value
2017-09-29T00:00:16.294Z,16.60
2017-09-29T00:02:44.682Z,16.60
2017-09-29T00:05:13.046Z,16.60
2017-09-29T00:07:41.394Z,16.60
2017-09-29T00:10:08.993Z,16.60
2017-09-29T00:12:36.556Z,16.60
2017-09-29T00:15:04.131Z,16.60
2017-09-29T00:17:32.499Z,16.60
2017-09-29T00:20:00.066Z,16.60
2017-09-29T00:22:28.407Z,16.60
2017-09-29T00:24:56.018Z,16.60
2017-09-29T00:27:24.344Z,16.60
2017-09-29T00:29:51.938Z,16.60
2017-09-29T00:32:19.539Z,16.50
2017-09-29T00:34:47.865Z,16.50
2017-09-29T00:37:15.461Z,16.50
2017-09-29T00:39:43.087Z,16.50
2017-09-29T00:42:10.681Z,16.50
2017-09-29T00:44:38.281Z,16.60
2017-09-29T00:47:05.887Z,16.50
2017-09-29T00:49:33.448Z,16.60
2017-09-29T00:52:01.058Z,16.60
2017-09-29T00:54:29.486Z,16.60
2017-09-29T00:56:57.070Z,16.60
2017-09-29T00:59:24.671Z,16.60
2017-09-29T01:01:53.023Z,16.60
2017-09-29T01:04:20.627Z,16.60
2017-09-29T01:06:48.985Z,16.60
2017-09-29T01:09:16.581Z,16.60
2017-09-29T01:11:44.183Z,16.60
2017-09-29T01:14:11.778Z,16.60
2017-09-29T01:16:39.387Z,16.60
2017-09-29T01:19:06.954Z,16.60
2017-09-29T01:21:34.542Z,16.60
2017-09-29T01:24:02.181Z,16.60
2017-09-29T01:26:29.759Z,16.60
2017-09-29T01:28:57.335Z,16.60
2017-09-29T01:31:24.924Z,16.70
2017-09-29T01:33:52.495Z,16.60
2017-09-29T01:36:20.085Z,16.60
2017-09-29T01:38:48.423Z,16.60
2017-09-29T01:41:16.035Z,16.60
2017-09-29T01:43:44.377Z,16.60
2017-09-29T01:46:11.936Z,16.60
2017-09-29T01:48:39.557Z,16.60
2017-09-29T01:51:07.149Z,16.60
2017-09-29T01:53:34.749Z,16.60
2017-09-29T01:56:02.327Z,16.60
2017-09-29T01:58:30.675Z,16.60
2017-09-29T02:00:58.272Z,16.60
2017-09-29T02:03:26.605Z,16.60
2017-09-29T02:05:54.203Z,16.60
2017-09-29T02:08:21.789Z,16.60
2017-09-29T02:10:50.141Z,16.60
2017-09-29T02:13:17.700Z,16.60
2017-09-29T02:15:45.322Z,16.60
2017-09-29T02:18:12.903Z,16.60
2017-09-29T02:20:40.510Z,16.60
2017-09-29T02:23:08.854Z,16.50
2017-09-29T02:25:36.427Z,16.50
2017-09-29T02:28:04.051Z,16.50
2017-09-29T02:30:31.631Z,16.60
2017-09-29T02:32:59.207Z,16.50
2017-09-29T02:35:26.825Z,16.50
2017-09-29T02:37:55.149Z,16.50
2017-09-29T02:40:22.740Z,16.50
2017-09-29T02:42:51.110Z,16.60
2017-09-29T02:45:18.691Z,16.50
2017-09-29T02:47:46.338Z,16.60
2017-09-29T02:50:13.925Z,16.60
2017-09-29T02:52:41.558Z,16.60
2017-09-29T02:55:09.171Z,16.60
2017-09-29T02:57:40.331Z,16.60
2017-09-29T03:00:10.409Z,16.60
2017-09-29T03:02:40.287Z,16.60
2017-09-29T03:05:10.377Z,16.60
2017-09-29T03:07:38.744Z,16.60
2017-09-29T03:10:06.329Z,16.60
2017-09-29T03:12:34.671Z,16.60
2017-09-29T03:15:02.282Z,16.60
2017-09-29T03:17:29.848Z,16.60
2017-09-29T03:19:57.422Z,16.60
2017-09-29T03:22:25.010Z,16.60
2017-09-29T03:24:52.597Z,16.60
2017-09-29T03:27:20.175Z,16.60
2017-09-29T03:29:47.781Z,16.60
2017-09-29T03:32:15.360Z,16.60
2017-09-29T03:34:42.940Z,16.60
2017-09-29T03:37:10.539Z,16.60
2017-09-29T03:39:38.110Z,16.60
2017-09-29T03:42:06.474Z,16.60
2017-09-29T03:44:34.048Z,16.60
2017-09-29T03:47:01.660Z,16.60
2017-09-29T03:49:29.236Z,16.60
2017-09-29T03:51:57.976Z,16.60
2017-09-29T03:54:27.227Z,16.70
2017-09-29T03:56:55.697Z,16.70
2017-09-29T03:59:23.909Z,16.70
2017-09-29T04:01:51.510Z,16.70
2017-09-29T04:04:19.852Z,16.70
2017-09-29T04:06:47.430Z,16.70
2017-09-29T04:09:15.047Z,16.70
2017-09-29T04:11:42.641Z,16.70
2017-09-29T04:14:10.209Z,16.70
2017-09-29T04:16:37.819Z,16.70
2017-09-29T04:19:06.145Z,16.70
2017-09-29T04:21:33.723Z,16.60
2017-09-29T04:24:01.340Z,16.70
2017-09-29T04:26:28.953Z,16.70
2017-09-29T04:28:56.544Z,16.70
2017-09-29T04:31:24.919Z,16.70
2017-09-29T04:33:52.509Z,16.60
2017-09-29T04:36:20.101Z,16.70
2017-09-29T04:38:47.729Z,16.70
2017-09-29T04:41:16.070Z,16.70
2017-09-29T04:43:43.634Z,16.70
2017-09-29T04:46:11.247Z,16.70
2017-09-29T04:48:39.604Z,16.70
2017-09-29T04:51:07.951Z,16.70
2017-09-29T04:53:35.555Z,16.70
2017-09-29T04:56:03.920Z,16.70
2017-09-29T04:58:32.307Z,16.70
2017-09-29T05:00:59.926Z,16.70
2017-09-29T05:03:27.530Z,16.60
2017-09-29T05:05:55.126Z,16.70
2017-09-29T05:08:23.466Z,16.60
2017-09-29T05:10:51.056Z,16.60
2017-09-29T05:13:18.657Z,16.60
2017-09-29T05:15:46.231Z,16.60
2017-09-29T05:18:13.849Z,16.60
2017-09-29T05:20:42.199Z,16.60
2017-09-29T05:23:09.756Z,16.60
2017-09-29T05:25:37.381Z,16.60
2017-09-29T05:28:05.139Z,16.60
2017-09-29T05:30:33.473Z,16.60
2017-09-29T05:33:01.074Z,16.60
2017-09-29T05:35:29.441Z,16.60
2017-09-29T05:37:57.029Z,16.60
2017-09-29T05:40:25.380Z,16.60
2017-09-29T05:42:52.969Z,16.60
2017-09-29T05:45:21.347Z,16.60
2017-09-29T05:47:49.687Z,16.60
2017-09-29T05:50:17.278Z,16.60
2017-09-29T05:52:44.891Z,16.60
2017-09-29T05:55:12.464Z,16.60
2017-09-29T05:57:40.043Z,16.60
2017-09-29T06:00:07.658Z,16.60
2017-09-29T06:02:35.999Z,16.70
2017-09-29T06:05:03.578Z,16.70
2017-09-29T06:07:32.698Z,16.60
2017-09-29T06:10:00.253Z,16.60
2017-09-29T06:12:27.808Z,16.70
2017-09-29T06:14:55.419Z,16.60
2017-09-29T06:17:23.107Z,16.60
2017-09-29T06:19:50.687Z,16.70
2017-09-29T06:22:18.305Z,16.70
2017-09-29T06:24:46.629Z,16.70
2017-09-29T06:27:14.215Z,16.70
2017-09-29T06:29:41.842Z,16.70
2017-09-29T06:32:09.425Z,16.80
2017-09-29T06:34:37.123Z,16.80
2017-09-29T06:37:04.745Z,16.80
2017-09-29T06:39:32.325Z,16.80
2017-09-29T06:41:59.909Z,16.80
2017-09-29T06:44:27.541Z,16.80
2017-09-29T06:46:55.115Z,16.90
2017-09-29T06:49:22.706Z,16.80
2017-09-29T06:51:50.297Z,16.90
2017-09-29T06:54:18.625Z,16.90
2017-09-29T06:56:46.276Z,16.90
2017-09-29T06:59:13.902Z,16.90
2017-09-29T07:01:42.242Z,16.90
2017-09-29T07:04:09.815Z,16.90
2017-09-29T07:06:37.441Z,16.90
2017-09-29T07:09:05.004Z,17.00
2017-09-29T07:11:32.609Z,17.00
2017-09-29T07:14:00.215Z,17.00
2017-09-29T07:16:28.545Z,17.00
2017-09-29T07:18:56.132Z,17.00
2017-09-29T07:21:23.751Z,17.00
2017-09-29T07:23:51.333Z,17.10
2017-09-29T07:26:20.553Z,17.10
2017-09-29T07:28:49.706Z,17.10
2017-09-29T07:31:18.313Z,17.20
2017-09-29T07:33:45.975Z,17.30
2017-09-29T07:36:13.593Z,17.30
2017-09-29T07:38:41.198Z,17.30
2017-09-29T07:41:08.789Z,17.30
2017-09-29T07:43:36.409Z,17.40
2017-09-29T07:46:04.006Z,17.40
2017-09-29T07:48:31.583Z,17.50
2017-09-29T07:50:59.199Z,17.60
2017-09-29T07:53:27.539Z,17.70
2017-09-29T07:55:55.122Z,17.70
2017-09-29T07:58:22.736Z,17.80
2017-09-29T08:00:50.326Z,17.90
2017-09-29T08:03:17.918Z,18.10
2017-09-29T08:05:45.520Z,18.20
2017-09-29T08:08:13.101Z,18.50
2017-09-29T08:10:40.679Z,18.80
2017-09-29T08:13:08.301Z,19.30
2017-09-29T08:15:35.875Z,19.70
2017-09-29T08:18:03.433Z,19.80
2017-09-29T08:20:31.043Z,19.80
2017-09-29T08:22:58.600Z,19.90
2017-09-29T08:25:26.171Z,20.20
2017-09-29T08:27:53.777Z,20.40
2017-09-29T08:30:22.705Z,20.40
2017-09-29T08:32:50.283Z,20.40
2017-09-29T08:35:17.877Z,20.60
2017-09-29T08:37:45.450Z,20.50
2017-09-29T08:40:13.800Z,20.50
2017-09-29T08:42:41.455Z,20.40
2017-09-29T08:45:09.032Z,20.50
2017-09-29T08:47:36.674Z,20.60
2017-09-29T08:50:04.269Z,20.50
2017-09-29T08:52:31.854Z,20.80
2017-09-29T08:54:59.412Z,20.80
2017-09-29T08:57:27.005Z,20.60
2017-09-29T08:59:54.581Z,20.70
2017-09-29T09:02:22.186Z,20.70
2017-09-29T09:04:49.791Z,20.80
2017-09-29T09:07:19.071Z,21.10
2017-09-29T09:09:46.657Z,21.10
2017-09-29T09:12:15.040Z,21.50
2017-09-29T09:14:43.378Z,21.60
2017-09-29T09:17:10.976Z,21.50
2017-09-29T09:19:39.361Z,22.00
2017-09-29T09:22:07.713Z,22.50
2017-09-29T09:24:35.281Z,22.50
2017-09-29T09:27:02.918Z,22.90
2017-09-29T09:29:30.501Z,22.70
2017-09-29T09:31:58.082Z,22.60
2017-09-29T09:34:25.733Z,22.50
2017-09-29T09:36:53.288Z,22.40
2017-09-29T09:39:20.855Z,22.40
2017-09-29T09:41:48.477Z,22.30
2017-09-29T09:44:16.041Z,22.30
2017-09-29T09:46:43.607Z,22.30
2017-09-29T09:49:11.221Z,22.40
2017-09-29T09:51:38.805Z,22.40
2017-09-29T09:54:06.391Z,22.20
2017-09-29T09:56:34.766Z,22.50
2017-09-29T09:59:03.086Z,22.70
2017-09-29T10:01:30.669Z,22.70
2017-09-29T10:03:58.280Z,22.40
2017-09-29T10:06:26.615Z,22.10
2017-09-29T10:08:54.205Z,22.00
2017-09-29T10:11:21.829Z,22.00
2017-09-29T10:13:49.407Z,22.00
2017-09-29T10:16:16.989Z,22.20
2017-09-29T10:18:44.596Z,22.10
2017-09-29T10:21:12.173Z,22.30
2017-09-29T10:23:39.744Z,22.50
2017-09-29T10:26:07.328Z,22.70
2017-09-29T10:28:34.915Z,22.40
2017-09-29T10:31:02.515Z,22.00
2017-09-29T10:33:30.124Z,21.90
2017-09-29T10:35:57.684Z,22.00
2017-09-29T10:38:26.102Z,22.10
2017-09-29T10:40:54.471Z,22.50
2017-09-29T10:43:22.085Z,22.50
2017-09-29T10:45:50.592Z,22.50
2017-09-29T10:48:18.182Z,22.20
2017-09-29T10:50:45.757Z,22.30
2017-09-29T10:53:14.109Z,22.20
2017-09-29T10:55:41.716Z,22.20
2017-09-29T10:58:10.066Z,22.40
2017-09-29T11:00:37.635Z,22.40
2017-09-29T11:03:05.244Z,22.40
2017-09-29T11:05:32.831Z,22.40
2017-09-29T11:08:00.399Z,22.30
2017-09-29T11:10:28.062Z,22.50
2017-09-29T11:12:55.625Z,22.70
2017-09-29T11:15:23.207Z,22.90
2017-09-29T11:17:50.819Z,23.00
2017-09-29T11:20:19.146Z,23.40
2017-09-29T11:22:47.375Z,23.30
2017-09-29T11:25:15.733Z,23.70
2017-09-29T11:27:43.315Z,23.70
2017-09-29T11:30:11.658Z,23.90
2017-09-29T11:32:39.245Z,24.00
2017-09-29T11:35:06.816Z,23.90
2017-09-29T11:37:34.401Z,24.00
2017-09-29T11:40:02.753Z,23.50
2017-09-29T11:42:30.324Z,23.50
2017-09-29T11:44:58.866Z,23.70
2017-09-29T11:47:26.467Z,24.10
2017-09-29T11:49:54.020Z,24.30
2017-09-29T11:52:21.577Z,24.20
2017-09-29T11:54:49.183Z,24.10
2017-09-29T11:57:17.523Z,23.90
2017-09-29T11:59:45.114Z,23.90
2017-09-29T12:02:13.502Z,23.30
2017-09-29T12:04:41.847Z,23.30
2017-09-29T12:07:09.434Z,23.30
2017-09-29T12:09:37.023Z,23.30
2017-09-29T12:12:05.355Z,23.30
2017-09-29T12:14:32.924Z,23.30
2017-09-29T12:17:00.551Z,23.40
2017-09-29T12:19:28.133Z,23.50
2017-09-29T12:21:55.716Z,23.60
2017-09-29T12:24:23.314Z,23.50
2017-09-29T12:26:50.888Z,23.70
2017-09-29T12:29:19.218Z,23.80
2017-09-29T12:31:46.849Z,23.80
2017-09-29T12:34:14.903Z,23.90
2017-09-29T12:36:43.261Z,23.90
2017-09-29T12:39:10.897Z,23.90
2017-09-29T12:41:38.689Z,24.10
2017-09-29T12:44:06.451Z,24.10
2017-09-29T12:46:34.019Z,24.20
2017-09-29T12:49:01.664Z,24.30
2017-09-29T12:51:29.267Z,24.10
2017-09-29T12:53:56.857Z,24.00
2017-09-29T12:56:25.278Z,23.60
2017-09-29T12:58:52.865Z,23.60
2017-09-29T13:01:20.454Z,23.60
2017-09-29T13:03:48.027Z,23.60
2017-09-29T13:06:15.614Z,23.30
2017-09-29T13:08:43.219Z,23.10
2017-09-29T13:11:10.850Z,22.90
2017-09-29T13:13:38.458Z,22.70
2017-09-29T13:16:07.529Z,22.70
2017-09-29T13:18:35.110Z,22.70
2017-09-29T13:21:02.753Z,22.80
2017-09-29T13:23:31.281Z,22.70
2017-09-29T13:25:58.873Z,22.70
2017-09-29T13:28:27.210Z,22.60
2017-09-29T13:30:54.764Z,22.60
2017-09-29T13:33:22.351Z,22.60
2017-09-29T13:35:49.979Z,22.60
2017-09-29T13:38:17.582Z,22.50
2017-09-29T13:40:45.140Z,22.40
2017-09-29T13:43:12.772Z,22.40
2017-09-29T13:45:40.363Z,22.30
2017-09-29T13:48:07.939Z,22.30
2017-09-29T13:50:35.557Z,22.30
2017-09-29T13:53:03.146Z,22.30
2017-09-29T13:55:30.713Z,22.30
2017-09-29T13:57:58.303Z,22.30
2017-09-29T14:00:25.868Z,22.20
2017-09-29T14:02:53.484Z,22.20
2017-09-29T14:05:21.047Z,22.20
2017-09-29T14:07:48.641Z,22.20
2017-09-29T14:10:16.230Z,22.20
2017-09-29T14:12:44.580Z,22.20
2017-09-29T14:15:12.184Z,22.10
2017-09-29T14:17:40.504Z,22.00
2017-09-29T14:20:08.056Z,22.00
2017-09-29T14:22:35.652Z,22.00
2017-09-29T14:25:03.238Z,22.00
2017-09-29T14:27:30.856Z,22.00
2017-09-29T14:29:58.424Z,22.00
2017-09-29T14:32:26.013Z,22.00
2017-09-29T14:34:53.610Z,22.00
2017-09-29T14:37:21.986Z,22.00
2017-09-29T14:39:49.579Z,22.00
2017-09-29T14:42:17.160Z,22.10
2017-09-29T14:44:44.773Z,22.10
2017-09-29T14:47:12.339Z,22.10
2017-09-29T14:49:39.953Z,22.20
2017-09-29T14:52:07.532Z,22.20
2017-09-29T14:54:35.131Z,22.20
2017-09-29T14:57:03.492Z,22.20
2017-09-29T14:59:31.058Z,22.20
2017-09-29T15:01:58.652Z,22.30
2017-09-29T15:04:26.249Z,22.20
2017-09-29T15:06:53.834Z,22.20
2017-09-29T15:09:21.437Z,22.10
2017-09-29T15:11:49.023Z,22.10
2017-09-29T15:14:17.408Z,22.00
2017-09-29T15:16:45.751Z,22.00
2017-09-29T15:19:13.332Z,22.00
2017-09-29T15:21:40.927Z,22.00
2017-09-29T15:24:08.484Z,22.00
2017-09-29T15:26:36.846Z,21.90
2017-09-29T15:29:04.407Z,21.90
2017-09-29T15:31:32.007Z,21.80
2017-09-29T15:33:59.589Z,21.80
2017-09-29T15:36:27.140Z,21.80
2017-09-29T15:38:54.739Z,21.80
2017-09-29T15:41:24.334Z,21.80
2017-09-29T15:43:51.922Z,21.80
2017-09-29T15:46:19.558Z,21.80
2017-09-29T15:48:47.134Z,21.70
2017-09-29T15:51:14.728Z,21.70
2017-09-29T15:53:42.323Z,21.60
2017-09-29T15:56:09.891Z,21.60
2017-09-29T15:58:37.503Z,21.50
2017-09-29T16:01:05.068Z,21.40
2017-09-29T16:03:32.681Z,21.40
2017-09-29T16:06:00.236Z,21.40
2017-09-29T16:08:28.588Z,21.30
2017-09-29T16:10:57.711Z,21.20
2017-09-29T16:13:26.046Z,21.20
2017-09-29T16:15:53.654Z,21.20
2017-09-29T16:18:22.010Z,21.20
2017-09-29T16:20:49.601Z,21.20
2017-09-29T16:23:18.255Z,21.20
2017-09-29T16:25:45.812Z,21.20
2017-09-29T16:28:13.426Z,21.20
2017-09-29T16:30:41.793Z,21.10
2017-09-29T16:33:10.117Z,21.10
2017-09-29T16:35:37.711Z,21.10
2017-09-29T16:38:05.286Z,21.10
2017-09-29T16:40:34.378Z,21.00
2017-09-29T16:43:01.953Z,21.00
2017-09-29T16:45:29.578Z,21.00
2017-09-29T16:47:57.161Z,21.00
2017-09-29T16:50:24.741Z,21.00
2017-09-29T16:52:52.350Z,21.00
2017-09-29T16:55:19.937Z,20.90
2017-09-29T16:57:47.550Z,20.80
2017-09-29T17:00:15.137Z,20.80
2017-09-29T17:02:42.719Z,20.70
2017-09-29T17:05:10.310Z,20.60
2017-09-29T17:07:37.883Z,20.60
2017-09-29T17:10:05.475Z,20.50
2017-09-29T17:12:33.413Z,20.40
2017-09-29T17:15:01.033Z,20.30
2017-09-29T17:17:28.617Z,20.30
2017-09-29T17:19:56.201Z,20.20
2017-09-29T17:22:23.805Z,20.10
2017-09-29T17:24:52.139Z,20.00
2017-09-29T17:27:19.805Z,19.90
2017-09-29T17:29:47.419Z,19.90
2017-09-29T17:32:15.039Z,19.80
2017-09-29T17:34:42.615Z,19.80
2017-09-29T17:37:10.173Z,19.70
2017-09-29T17:39:37.785Z,19.70
2017-09-29T17:42:06.144Z,19.60
2017-09-29T17:44:33.740Z,19.50
2017-09-29T17:47:02.076Z,19.50
2017-09-29T17:49:29.638Z,19.50
2017-09-29T17:51:57.254Z,19.40
2017-09-29T17:54:24.813Z,19.40
2017-09-29T17:56:53.175Z,19.30
2017-09-29T17:59:20.746Z,19.30
2017-09-29T18:01:49.100Z,19.30
2017-09-29T18:04:16.660Z,19.30
2017-09-29T18:06:44.220Z,19.30
2017-09-29T18:09:11.815Z,19.30
2017-09-29T18:11:39.410Z,19.30
2017-09-29T18:16:43.049Z,19.30
2017-09-29T18:19:10.647Z,19.30
2017-09-29T18:21:38.243Z,19.30
2017-09-29T18:24:06.583Z,19.40
2017-09-29T18:26:34.188Z,19.40
2017-09-29T18:29:02.526Z,19.40
2017-09-29T18:31:30.149Z,19.40
2017-09-29T18:33:57.746Z,19.40
2017-09-29T18:36:25.338Z,19.40
2017-09-29T18:38:52.917Z,19.40
2017-09-29T18:41:36.225Z,19.40
2017-09-29T18:44:04.341Z,19.40
2017-09-29T18:46:42.619Z,19.40
2017-09-29T18:49:10.233Z,19.50
2017-09-29T18:51:37.798Z,19.50
2017-09-29T18:54:05.360Z,19.50
2017-09-29T18:56:32.963Z,19.50
2017-09-29T18:59:00.536Z,19.40
2017-09-29T19:01:28.147Z,19.40
2017-09-29T19:03:55.751Z,19.30
2017-09-29T19:06:23.377Z,19.30
2017-09-29T19:08:50.980Z,19.30
2017-09-29T19:11:18.590Z,19.20
2017-09-29T19:13:46.160Z,19.20
2017-09-29T19:16:13.740Z,19.20
2017-09-29T19:18:41.382Z,19.10
2017-09-29T19:21:09.280Z,19.10
2017-09-29T19:23:36.872Z,19.00
2017-09-29T19:26:04.438Z,19.00
2017-09-29T19:28:32.091Z,18.90
2017-09-29T19:30:59.841Z,18.90
2017-09-29T19:33:27.714Z,18.90
2017-09-29T19:35:55.320Z,18.90
2017-09-29T19:38:23.146Z,18.80
2017-09-29T19:40:50.769Z,18.80
2017-09-29T19:43:19.144Z,18.80
2017-09-29T19:45:47.681Z,18.70
2017-09-29T19:48:15.286Z,18.70
2017-09-29T19:50:42.863Z,18.70
2017-09-29T19:53:10.604Z,18.70
2017-09-29T19:55:38.582Z,18.60
2017-09-29T19:58:06.233Z,18.70
2017-09-29T20:00:33.836Z,18.60
2017-09-29T20:03:02.162Z,18.60
2017-09-29T20:05:29.760Z,18.60
2017-09-29T20:07:57.325Z,18.60
2017-09-29T20:10:25.085Z,18.60
2017-09-29T20:12:52.666Z,18.60
2017-09-29T20:15:20.271Z,18.60
2017-09-29T20:17:47.880Z,18.60
2017-09-29T20:20:15.490Z,18.60
2017-09-29T20:22:43.093Z,18.50
2017-09-29T20:25:10.713Z,18.50
2017-09-29T20:27:39.051Z,18.50
2017-09-29T20:30:06.627Z,18.50
2017-09-29T20:32:34.223Z,18.50
2017-09-29T20:35:02.566Z,18.60
2017-09-29T20:37:30.157Z,18.50
2017-09-29T20:39:58.501Z,18.60
2017-09-29T20:42:26.099Z,18.60
2017-09-29T20:44:53.675Z,18.60
2017-09-29T20:47:22.043Z,18.60
2017-09-29T20:49:50.398Z,18.60
2017-09-29T20:52:17.961Z,18.60
2017-09-29T20:54:45.554Z,18.60
2017-09-29T20:57:13.141Z,18.70
2017-09-29T20:59:40.756Z,18.60
2017-09-29T21:02:08.317Z,18.60
2017-09-29T21:04:35.891Z,18.60
2017-09-29T21:07:03.487Z,18.60
2017-09-29T21:09:31.845Z,18.60
2017-09-29T21:11:59.451Z,18.60
2017-09-29T21:14:27.018Z,18.60
2017-09-29T21:16:54.607Z,18.60
2017-09-29T21:19:22.184Z,18.60
2017-09-29T21:21:49.792Z,18.60
2017-09-29T21:24:18.144Z,18.60
2017-09-29T21:26:45.747Z,18.60
2017-09-29T21:29:14.082Z,18.50
2017-09-29T21:31:41.647Z,18.50
2017-09-29T21:34:09.257Z,18.50
2017-09-29T21:36:37.596Z,18.50
2017-09-29T21:39:05.205Z,18.50
2017-09-29T21:41:32.797Z,18.50
2017-09-29T21:44:00.413Z,18.60
2017-09-29T21:46:28.766Z,18.60
2017-09-29T21:48:56.352Z,18.60
2017-09-29T21:51:23.971Z,18.60
2017-09-29T21:53:51.546Z,18.60
2017-09-29T21:56:19.142Z,18.60
2017-09-29T21:58:46.714Z,18.50
2017-09-29T22:01:14.320Z,18.50
2017-09-29T22:03:41.906Z,18.50
2017-09-29T22:06:09.473Z,18.50
2017-09-29T22:08:37.053Z,18.40
2017-09-29T22:11:04.630Z,18.40
2017-09-29T22:13:32.231Z,18.40
2017-09-29T22:15:59.807Z,18.50
2017-09-29T22:18:27.450Z,18.50
2017-09-29T22:20:55.013Z,18.40
2017-09-29T22:23:23.332Z,18.40
2017-09-29T22:25:50.944Z,18.40
2017-09-29T22:28:19.283Z,18.40
2017-09-29T22:30:46.938Z,18.40
2017-09-29T22:33:14.521Z,18.40
2017-09-29T22:35:42.141Z,18.40
2017-09-29T22:38:09.726Z,18.40
2017-09-29T22:40:37.304Z,18.30
2017-09-29T22:43:04.884Z,18.30
2017-09-29T22:45:32.463Z,18.30
2017-09-29T22:48:00.125Z,18.30
2017-09-29T22:50:27.721Z,18.20
2017-09-29T22:52:56.063Z,18.20
2017-09-29T22:55:23.644Z,18.20
2017-09-29T22:57:51.210Z,18.20
2017-09-29T23:00:18.806Z,18.20
2017-09-29T23:02:46.384Z,18.20
2017-09-29T23:05:13.997Z,18.20
2017-09-29T23:07:43.061Z,18.10
2017-09-29T23:10:10.666Z,18.10
2017-09-29T23:12:38.253Z,18.10
2017-09-29T23:15:06.590Z,18.10
2017-09-29T23:17:34.168Z,18.10
2017-09-29T23:20:01.735Z,18.10
2017-09-29T23:22:29.354Z,18.00
2017-09-29T23:24:56.917Z,18.00
2017-09-29T23:27:24.488Z,18.00
2017-09-29T23:29:52.102Z,18.00
2017-09-29T23:32:20.434Z,18.00
2017-09-29T23:34:48.035Z,18.00
2017-09-29T23:37:15.607Z,18.00
2017-09-29T23:39:43.964Z,18.10
2017-09-29T23:42:11.566Z,18.10
2017-09-29T23:44:39.900Z,18.10
2017-09-29T23:47:07.521Z,18.10
2017-09-29T23:49:35.848Z,18.10
2017-09-29T23:52:03.438Z,18.10
2017-09-29T23:54:31.030Z,18.10
2017-09-29T23:56:59.381Z,18.10
2017-09-29T23:59:26.983Z,18.10
